Time;durP1;ratioP1;P1;durP2;ratioP2;P2;SDS_P1;SDS_P2;PMS_P1;PMS_P2;Temp;Humidity;BMP_temperature;BMP_pressure;BME280_temperature;BME280_humidity;BME280_pressure;Samples;Min_cycle;Max_cycle;Signal;HPM_P1;HPM_P2
2023/05/11 00:01:24;;;;;;;1.00;0.22;;;20.40;73.40;;;;;;4982469;28;20066;-73
2023/05/11 00:03:51;;;;;;;1.23;0.30;;;20.40;73.40;;;;;;4984424;28;20426;-73
2023/05/11 00:06:18;;;;;;;1.30;0.45;;;20.40;73.40;;;;;;4981816;28;20062;-73
2023/05/11 00:08:45;;;;;;;1.17;0.30;;;20.40;73.40;;;;;;4980282;28;20058;-73
2023/05/11 00:11:12;;;;;;;1.45;0.38;;;20.40;73.40;;;;;;4986664;28;20146;-73
2023/05/11 00:13:40;;;;;;;1.27;0.47;;;20.40;73.40;;;;;;4984532;28;20391;-73
2023/05/11 00:16:07;;;;;;;1.15;0.30;;;20.40;73.40;;;;;;4986745;28;20050;-73
2023/05/11 00:18:34;;;;;;;1.35;0.20;;;20.40;73.40;;;;;;4987404;28;20050;-73
2023/05/11 00:21:01;;;;;;;1.15;0.32;;;20.40;73.30;;;;;;4983065;28;20070;-73
2023/05/11 00:23:28;;;;;;;1.00;0.40;;;20.40;73.40;;;;;;4985039;28;20058;-73
2023/05/11 00:25:55;;;;;;;1.13;0.20;;;20.40;73.30;;;;;;4988842;28;20053;-73
2023/05/11 00:28:22;;;;;;;0.85;0.30;;;20.40;73.30;;;;;;4984027;28;20057;-73
2023/05/11 00:30:56;;;;;;;1.73;0.50;;;20.40;73.30;;;;;;4988882;28;20050;-73
2023/05/11 00:33:23;;;;;;;0.90;0.28;;;20.40;73.30;;;;;;4987266;28;20058;-73
2023/05/11 00:35:50;;;;;;;1.73;0.40;;;20.40;73.20;;;;;;4985695;28;20392;-73
2023/05/11 00:38:16;;;;;;;1.30;0.30;;;20.40;73.30;;;;;;4987947;28;20419;-73
2023/05/11 00:40:43;;;;;;;1.00;0.22;;;20.40;73.20;;;;;;4986579;28;20391;-73
2023/05/11 00:43:10;;;;;;;1.23;0.50;;;20.30;73.20;;;;;;4980844;28;20069;-73
2023/05/11 00:45:38;;;;;;;0.90;0.20;;;20.40;73.20;;;;;;4979060;28;20051;-74
2023/05/11 00:48:07;;;;;;;0.80;0.30;;;20.40;73.30;;;;;;4986281;28;20495;-73
2023/05/11 00:50:34;;;;;;;1.23;0.43;;;20.30;73.20;;;;;;4985510;28;20056;-73
2023/05/11 00:53:02;;;;;;;1.67;0.30;;;20.40;73.20;;;;;;4989099;28;20104;-73
2023/05/11 00:55:30;;;;;;;1.00;0.28;;;20.40;73.20;;;;;;4987476;28;20061;-73
2023/05/11 00:57:57;;;;;;;1.17;0.22;;;20.40;73.20;;;;;;4987692;28;20459;-73
2023/05/11 01:00:24;;;;;;;0.95;0.20;;;20.40;73.20;;;;;;4987330;28;20050;-74
2023/05/11 01:02:51;;;;;;;1.58;0.30;;;20.30;73.10;;;;;;4983791;28;20487;-73
2023/05/11 01:05:20;;;;;;;1.27;0.30;;;20.30;73.10;;;;;;4987491;28;20050;-73
2023/05/11 01:07:57;;;;;;;1.05;0.22;;;20.30;73.10;;;;;;4989013;28;20046;-73
2023/05/11 01:10:29;;;;;;;1.23;0.43;;;20.30;73.10;;;;;;4984962;28;20054;-73
2023/05/11 01:13:05;;;;;;;1.27;0.40;;;20.30;73.10;;;;;;4986117;28;20062;-73
2023/05/11 01:15:35;;;;;;;;;;;20.30;73.10;;;;;;4987524;28;20054;-73
2023/05/11 01:18:11;;;;;;;1.00;0.30;;;20.30;73.10;;;;;;4988878;28;19921;-73
2023/05/11 01:20:43;;;;;;;0.93;0.28;;;20.30;73.10;;;;;;4987630;28;20086;-73
2023/05/11 01:23:42;;;;;;;1.20;0.30;;;20.30;73.10;;;;;;4987801;28;20054;-73
2023/05/11 01:26:21;;;;;;;0.98;0.30;;;20.30;73.10;;;;;;4984503;28;20051;-73
2023/05/11 01:29:25;;;;;;;1.48;0.22;;;20.30;73.10;;;;;;4986524;28;20046;-73
2023/05/11 01:31:56;;;;;;;1.40;0.40;;;20.30;73.10;;;;;;4983135;28;20068;-73
2023/05/11 01:34:25;;;;;;;1.17;0.40;;;20.30;73.10;;;;;;4987363;28;20050;-73
2023/05/11 01:36:55;;;;;;;0.90;0.20;;;20.30;73.00;;;;;;4986721;28;20060;-73
2023/05/11 01:39:38;;;;;;;1.00;0.30;;;20.30;73.10;;;;;;4985622;28;20038;-73
2023/05/11 01:42:09;;;;;;;1.40;0.47;;;20.30;73.10;;;;;;4991128;28;20077;-73
2023/05/11 01:44:39;;;;;;;1.00;0.38;;;20.30;73.00;;;;;;4978650;28;20073;-73
2023/05/11 01:47:09;;;;;;;1.73;0.38;;;20.30;73.00;;;;;;4990029;28;20058;-73
2023/05/11 01:49:38;;;;;;;;;;;20.30;73.00;;;;;;4990147;28;20502;-73
2023/05/11 01:52:08;;;;;;;1.17;0.22;;;20.30;72.90;;;;;;4989678;28;19980;-73
2023/05/11 01:54:37;;;;;;;1.33;0.43;;;20.30;73.00;;;;;;4989849;28;20446;-73
2023/05/11 01:57:06;;;;;;;0.80;0.20;;;20.30;73.00;;;;;;4977818;28;20050;-73
2023/05/11 01:59:33;;;;;;;1.50;0.40;;;20.30;72.90;;;;;;4990014;28;20073;-73
2023/05/11 02:02:02;;;;;;;1.13;0.40;;;20.30;73.00;;;;;;4990897;28;20050;-73
2023/05/11 02:04:32;;;;;;;1.00;0.45;;;20.30;73.00;;;;;;4988629;28;20062;-73
2023/05/11 02:06:59;;;;;;;;;;;20.30;73.00;;;;;;4988543;28;20065;-73
2023/05/11 02:09:29;;;;;;;0.95;0.30;;;20.30;72.90;;;;;;4986393;28;19976;-73
2023/05/11 02:11:57;;;;;;;1.40;0.30;;;20.30;72.90;;;;;;4987319;28;20137;-73
2023/05/11 02:14:27;;;;;;;1.65;0.73;;;20.20;72.90;;;;;;4990088;28;20108;-73
2023/05/11 02:16:57;;;;;;;1.20;0.50;;;20.30;72.90;;;;;;4988790;28;20046;-73
2023/05/11 02:19:25;;;;;;;0.85;0.40;;;20.30;72.90;;;;;;4989462;28;20046;-73
2023/05/11 02:21:55;;;;;;;1.10;0.30;;;20.20;72.90;;;;;;4990433;28;20053;-73
2023/05/11 02:24:23;;;;;;;1.17;0.43;;;20.20;72.90;;;;;;4989830;28;20065;-73
2023/05/11 02:26:51;;;;;;;1.85;0.30;;;20.20;73.50;;;;;;4984551;28;20053;-73
2023/05/11 02:29:18;;;;;;;0.70;0.22;;;20.30;73.00;;;;;;4988883;28;20066;-73
2023/05/11 02:31:47;;;;;;;1.05;0.38;;;20.20;72.90;;;;;;4989201;28;20061;-73
2023/05/11 02:34:21;;;;;;;1.48;0.30;;;20.20;72.90;;;;;;4986495;28;20057;-73
2023/05/11 02:36:49;;;;;;;1.02;0.30;;;20.30;72.90;;;;;;4982201;28;20057;-73
2023/05/11 02:39:21;;;;;;;1.25;0.20;;;20.20;72.80;;;;;;4990296;28;20055;-73
2023/05/11 02:41:53;;;;;;;1.48;0.50;;;20.30;72.90;;;;;;4988272;28;20062;-73
2023/05/11 02:44:23;;;;;;;1.05;0.30;;;20.20;72.80;;;;;;4985521;28;20142;-73
2023/05/11 02:46:52;;;;;;;1.05;0.40;;;20.20;72.80;;;;;;4988517;28;20053;-73
2023/05/11 02:49:22;;;;;;;0.88;0.30;;;20.20;72.80;;;;;;4987502;28;20069;-73
2023/05/11 02:51:50;;;;;;;0.75;0.20;;;20.30;72.90;;;;;;4989295;28;20054;-73
2023/05/11 02:54:19;;;;;;;0.90;0.40;;;20.20;72.80;;;;;;4984980;28;20130;-73
2023/05/11 02:56:46;;;;;;;1.15;0.55;;;20.20;72.80;;;;;;4984962;28;20054;-73
2023/05/11 02:59:15;;;;;;;1.20;0.50;;;20.30;72.80;;;;;;4986734;28;20054;-73
2023/05/11 03:01:43;;;;;;;1.33;0.43;;;20.20;72.80;;;;;;4984330;28;20081;-73
2023/05/11 03:04:10;;;;;;;1.30;0.30;;;20.20;72.80;;;;;;4988392;28;20149;-73
2023/05/11 03:06:37;;;;;;;1.20;0.32;;;20.20;72.80;;;;;;4989677;28;20049;-73
2023/05/11 03:09:04;;;;;;;1.27;0.22;;;20.20;72.80;;;;;;4988019;28;20058;-73
2023/05/11 03:11:33;;;;;;;1.10;0.20;;;20.20;72.80;;;;;;4984699;28;20055;-73
2023/05/11 03:14:01;;;;;;;1.40;0.20;;;20.20;72.80;;;;;;4988809;28;20046;-73
2023/05/11 03:16:29;;;;;;;1.30;0.30;;;20.20;72.80;;;;;;4986789;28;20046;-73
2023/05/11 03:18:57;;;;;;;1.30;0.30;;;20.20;72.80;;;;;;4984800;28;20050;-73
2023/05/11 03:21:26;;;;;;;0.88;0.20;;;20.20;72.70;;;;;;4988880;28;20038;-73
2023/05/11 03:23:53;;;;;;;0.85;0.30;;;20.20;72.70;;;;;;4987459;28;20408;-73
2023/05/11 03:26:22;;;;;;;1.48;0.30;;;20.20;72.70;;;;;;4987258;28;20055;-73
2023/05/11 03:28:52;;;;;;;1.40;0.20;;;20.20;72.70;;;;;;4988135;28;20062;-73
2023/05/11 03:31:19;;;;;;;0.90;0.20;;;20.20;72.70;;;;;;4989844;28;20046;-73
2023/05/11 03:33:46;;;;;;;1.00;0.30;;;20.20;72.70;;;;;;4987952;28;20062;-73
2023/05/11 03:36:14;;;;;;;1.10;0.30;;;20.20;72.70;;;;;;4988944;28;20581;-73
2023/05/11 03:38:42;;;;;;;1.20;0.30;;;20.20;72.70;;;;;;4988453;28;20058;-73
2023/05/11 03:41:10;;;;;;;0.85;0.20;;;20.20;72.70;;;;;;4979462;28;20050;-73
2023/05/11 03:43:38;;;;;;;1.17;0.32;;;20.20;72.70;;;;;;4987040;28;20474;-73
2023/05/11 03:46:08;;;;;;;1.17;0.28;;;20.20;72.70;;;;;;4989482;28;20038;-73
2023/05/11 03:48:35;;;;;;;1.00;0.28;;;20.20;72.60;;;;;;4989387;28;20122;-73
2023/05/11 03:51:04;;;;;;;1.40;0.40;;;20.20;72.70;;;;;;4988550;28;20046;-73
2023/05/11 03:53:31;;;;;;;0.88;0.30;;;20.20;72.60;;;;;;4988209;28;20057;-73
2023/05/11 03:55:58;;;;;;;1.30;0.28;;;20.20;72.60;;;;;;4988489;28;20058;-73
2023/05/11 03:58:25;;;;;;;0.80;0.20;;;20.20;72.60;;;;;;4986985;28;20054;-73
2023/05/11 04:00:52;;;;;;;1.00;0.30;;;20.20;72.60;;;;;;4988951;28;20050;-73
2023/05/11 04:03:21;;;;;;;1.00;0.20;;;20.20;72.60;;;;;;4988910;28;20054;-73
2023/05/11 04:05:48;;;;;;;1.05;0.30;;;20.20;72.60;;;;;;4987029;28;20126;-73
2023/05/11 04:08:15;;;;;;;1.00;0.32;;;20.20;72.60;;;;;;4986972;28;20046;-73
2023/05/11 04:10:42;;;;;;;1.10;0.40;;;20.10;72.60;;;;;;4988303;28;20073;-73
2023/05/11 04:13:09;;;;;;;0.80;0.22;;;20.10;72.50;;;;;;4986612;28;20057;-73
2023/05/11 04:15:36;;;;;;;1.00;0.20;;;20.20;72.60;;;;;;4989127;28;20470;-73
2023/05/11 04:18:03;;;;;;;1.08;0.30;;;20.20;72.60;;;;;;4987192;28;20057;-73
2023/05/11 04:20:31;;;;;;;1.08;0.20;;;20.10;72.50;;;;;;4988832;28;20050;-73
2023/05/11 04:22:58;;;;;;;1.10;0.50;;;20.10;72.50;;;;;;4987037;28;20069;-73
2023/05/11 04:25:26;;;;;;;1.30;0.50;;;20.10;72.50;;;;;;4988135;28;20062;-73
2023/05/11 04:27:53;;;;;;;0.93;0.40;;;20.20;72.60;;;;;;4988757;28;20126;-73
2023/05/11 04:30:20;;;;;;;1.40;0.35;;;20.10;72.60;;;;;;4983808;28;20050;-73
2023/05/11 04:32:47;;;;;;;1.02;0.22;;;20.20;73.20;;;;;;4986094;28;20104;-73
2023/05/11 04:35:14;;;;;;;0.90;0.30;;;20.10;72.50;;;;;;4988835;28;20077;-73
2023/05/11 04:37:42;;;;;;;1.45;0.75;;;20.10;72.50;;;;;;4986636;28;20121;-73
2023/05/11 04:40:10;;;;;;;1.35;0.77;;;20.10;72.50;;;;;;4988454;28;20046;-73
2023/05/11 04:42:37;;;;;;;1.88;0.38;;;20.10;72.50;;;;;;4986479;28;20054;-73
2023/05/11 04:45:05;;;;;;;1.02;0.40;;;20.10;72.50;;;;;;4986464;28;20050;-73
2023/05/11 04:47:32;;;;;;;1.20;0.30;;;20.10;72.50;;;;;;4986043;28;20137;-73
2023/05/11 04:49:59;;;;;;;1.48;0.40;;;20.10;72.50;;;;;;4987363;28;20050;-73
2023/05/11 04:52:26;;;;;;;0.93;0.20;;;20.10;72.40;;;;;;4989558;28;20061;-73
2023/05/11 04:54:54;;;;;;;0.93;0.30;;;20.10;72.50;;;;;;4991838;28;20049;-73
2023/05/11 04:57:21;;;;;;;1.05;0.30;;;20.10;72.50;;;;;;4989935;28;20062;-73
2023/05/11 04:59:48;;;;;;;1.05;0.43;;;20.10;72.40;;;;;;4986029;28;20054;-73
2023/05/11 05:02:15;;;;;;;1.20;0.40;;;20.10;72.50;;;;;;4990992;28;20550;-73
2023/05/11 05:04:42;;;;;;;1.13;0.30;;;20.10;72.40;;;;;;4991510;28;20494;-73
2023/05/11 05:07:09;;;;;;;2.10;0.22;;;20.10;72.50;;;;;;4990690;28;20553;-73
2023/05/11 05:09:36;;;;;;;1.10;0.45;;;20.10;72.40;;;;;;4989626;28;20058;-73
2023/05/11 05:12:04;;;;;;;1.20;0.20;;;20.10;72.40;;;;;;4992308;28;20054;-73
2023/05/11 05:14:32;;;;;;;0.98;0.35;;;20.10;72.40;;;;;;4990296;28;20058;-74
2023/05/11 05:17:00;;;;;;;1.10;0.50;;;20.10;72.40;;;;;;4989088;28;20053;-73
2023/05/11 05:19:27;;;;;;;1.00;0.28;;;20.10;72.40;;;;;;4990217;28;20058;-73
2023/05/11 05:21:54;;;;;;;1.02;0.22;;;20.10;72.40;;;;;;4990447;28;20052;-73
2023/05/11 05:24:20;;;;;;;1.00;0.30;;;20.10;72.40;;;;;;4991761;28;20046;-73
2023/05/11 05:26:47;;;;;;;1.05;0.20;;;20.10;72.40;;;;;;4991319;28;20046;-73
2023/05/11 05:29:16;;;;;;;1.17;0.32;;;20.10;72.40;;;;;;4990702;28;20406;-73
2023/05/11 05:31:43;;;;;;;0.98;0.32;;;20.10;72.40;;;;;;4985210;28;20054;-73
2023/05/11 05:34:10;;;;;;;1.40;0.32;;;20.10;72.40;;;;;;4982123;28;20055;-74
2023/05/11 05:36:37;;;;;;;1.00;0.22;;;20.10;72.40;;;;;;4986370;28;20054;-75
2023/05/11 05:39:08;;;;;;;3.03;0.35;;;20.10;72.40;;;;;;4991180;28;20047;-74
2023/05/11 05:41:36;;;;;;;1.23;0.40;;;20.10;72.40;;;;;;4991496;28;20054;-74
2023/05/11 05:44:03;;;;;;;1.13;0.35;;;20.10;72.40;;;;;;4990523;28;20042;-74
2023/05/11 05:46:31;;;;;;;0.95;0.25;;;20.10;72.40;;;;;;4989084;28;20216;-74
2023/05/11 05:48:58;;;;;;;1.58;0.25;;;20.10;72.40;;;;;;4989399;28;20431;-74
2023/05/11 05:51:25;;;;;;;1.92;0.50;;;20.10;72.40;;;;;;4988654;28;20109;-74
2023/05/11 05:53:52;;;;;;;1.13;0.32;;;20.10;72.40;;;;;;4990861;28;20046;-74
2023/05/11 05:56:20;;;;;;;1.00;0.30;;;20.10;72.40;;;;;;4990261;28;20075;-74
2023/05/11 05:58:47;;;;;;;1.08;0.55;;;20.10;72.40;;;;;;4988377;28;20061;-74
2023/05/11 06:01:14;;;;;;;1.10;0.30;;;20.10;72.50;;;;;;4989185;28;20061;-74
2023/05/11 06:03:43;;;;;;;1.15;0.28;;;20.10;72.40;;;;;;4989001;28;20513;-74
2023/05/11 06:06:10;;;;;;;1.02;0.20;;;20.10;72.40;;;;;;4984192;28;20101;-74
2023/05/11 06:08:38;;;;;;;1.25;0.30;;;20.10;72.50;;;;;;4979991;28;20140;-74
2023/05/11 06:11:05;;;;;;;1.15;0.63;;;20.10;72.40;;;;;;4987883;28;20382;-74
2023/05/11 06:13:32;;;;;;;0.77;0.22;;;20.10;72.50;;;;;;4977508;28;20716;-74
2023/05/11 06:15:59;;;;;;;1.23;0.35;;;20.10;72.50;;;;;;4977542;28;20125;-74
2023/05/11 06:18:26;;;;;;;1.23;0.30;;;20.10;72.50;;;;;;4983894;28;20053;-73
2023/05/11 06:20:54;;;;;;;1.10;0.55;;;20.10;72.50;;;;;;4987146;28;20384;-74
2023/05/11 06:23:21;;;;;;;1.35;0.32;;;20.10;72.50;;;;;;4987069;28;20050;-74
2023/05/11 06:25:48;;;;;;;1.23;0.30;;;20.10;72.50;;;;;;4984886;28;20047;-73
2023/05/11 06:28:15;;;;;;;3.38;0.30;;;20.10;72.50;;;;;;4988788;28;20058;-74
2023/05/11 06:30:42;;;;;;;0.70;0.20;;;20.10;72.50;;;;;;4990169;28;20054;-74
2023/05/11 06:33:09;;;;;;;1.23;0.20;;;20.10;72.60;;;;;;4987105;28;20050;-74
2023/05/11 06:35:36;;;;;;;0.98;0.20;;;20.10;72.50;;;;;;4990772;28;20042;-74
2023/05/11 06:38:05;;;;;;;1.27;0.32;;;20.10;72.60;;;;;;4988740;28;20129;-74
2023/05/11 06:40:32;;;;;;;0.90;0.20;;;20.10;72.60;;;;;;4988196;28;20054;-74
2023/05/11 06:42:59;;;;;;;0.90;0.20;;;20.20;72.60;;;;;;4982092;28;20038;-74
2023/05/11 06:45:25;;;;;;;0.77;0.20;;;20.10;72.60;;;;;;4989209;28;20573;-74
2023/05/11 06:47:53;;;;;;;0.80;0.20;;;20.10;72.50;;;;;;4986198;28;20415;-74
2023/05/11 06:50:20;;;;;;;1.70;0.30;;;20.10;72.50;;;;;;4989522;28;20042;-74
2023/05/11 06:52:46;;;;;;;0.85;0.30;;;20.20;72.60;;;;;;4989798;28;20050;-74
2023/05/11 06:55:15;;;;;;;0.98;0.28;;;20.20;72.60;;;;;;4987384;28;20057;-74
2023/05/11 06:57:42;;;;;;;1.08;0.35;;;20.10;72.50;;;;;;4986830;28;20046;-74
2023/05/11 07:00:10;;;;;;;1.00;0.28;;;20.10;72.50;;;;;;4988263;28;20062;-74
2023/05/11 07:02:37;;;;;;;0.73;0.25;;;20.20;72.60;;;;;;4982555;28;20427;-74
2023/05/11 07:05:04;;;;;;;2.25;0.30;;;20.20;72.50;;;;;;4986052;28;20046;-74
2023/05/11 07:07:31;;;;;;;2.08;0.35;;;20.20;72.50;;;;;;4986966;28;20061;-74
2023/05/11 07:09:58;;;;;;;1.55;0.20;;;20.20;72.50;;;;;;4987598;28;20058;-74
2023/05/11 07:12:26;;;;;;;1.30;0.50;;;20.20;72.50;;;;;;4986875;28;20399;-74
2023/05/11 07:14:53;;;;;;;0.82;0.22;;;20.20;72.50;;;;;;4989051;28;20046;-75
2023/05/11 07:17:20;;;;;;;1.67;0.20;;;20.20;72.40;;;;;;4988402;28;20138;-74
2023/05/11 07:19:47;;;;;;;0.85;0.20;;;20.20;72.40;;;;;;4987660;28;20057;-74
2023/05/11 07:22:14;;;;;;;1.10;0.30;;;20.20;72.40;;;;;;4988726;28;20057;-74
2023/05/11 07:24:41;;;;;;;0.98;0.30;;;20.20;72.50;;;;;;4988741;28;20046;-74
2023/05/11 07:27:08;;;;;;;1.35;0.38;;;20.20;72.50;;;;;;4988085;28;20050;-74
2023/05/11 07:29:36;;;;;;;1.35;0.35;;;20.20;72.50;;;;;;4987374;28;20058;-74
2023/05/11 07:32:03;;;;;;;0.82;0.28;;;20.20;72.50;;;;;;4989234;28;20169;-74
2023/05/11 07:34:30;;;;;;;1.15;0.32;;;20.20;72.40;;;;;;4989364;28;20482;-74
2023/05/11 07:36:57;;;;;;;0.82;0.20;;;20.20;72.40;;;;;;4989008;28;20049;-74
2023/05/11 07:39:24;;;;;;;0.93;0.35;;;20.20;72.40;;;;;;4987566;28;20053;-74
2023/05/11 07:41:51;;;;;;;0.73;0.13;;;20.20;72.40;;;;;;4988386;28;20054;-74
2023/05/11 07:44:18;;;;;;;0.85;0.25;;;20.20;72.30;;;;;;4987557;28;20169;-74
2023/05/11 07:46:47;;;;;;;0.90;0.25;;;20.20;72.30;;;;;;4987839;28;20057;-74
2023/05/11 07:49:13;;;;;;;0.80;0.20;;;20.20;72.30;;;;;;4985330;28;22583;-74
2023/05/11 07:51:40;;;;;;;0.90;0.20;;;20.20;72.30;;;;;;4982119;28;20058;-74
2023/05/11 07:54:07;;;;;;;1.00;0.20;;;20.20;72.30;;;;;;4986434;28;20065;-74
2023/05/11 07:56:35;;;;;;;1.13;0.20;;;20.20;72.20;;;;;;4987432;28;20057;-74
2023/05/11 07:59:02;;;;;;;0.90;0.22;;;20.20;72.20;;;;;;4987197;28;20068;-74
2023/05/11 08:01:29;;;;;;;1.05;0.20;;;20.20;72.20;;;;;;4980562;28;20054;-74
2023/05/11 08:03:57;;;;;;;0.95;0.35;;;20.30;72.30;;;;;;4988431;28;20419;-74
2023/05/11 08:06:24;;;;;;;0.82;0.38;;;20.20;72.20;;;;;;4986880;28;20060;-74
2023/05/11 08:08:51;;;;;;;0.90;0.20;;;20.30;72.20;;;;;;4987295;28;20054;-74
2023/05/11 08:11:18;;;;;;;1.10;0.30;;;20.20;72.10;;;;;;4988329;28;20046;-74
2023/05/11 08:13:45;;;;;;;0.98;0.22;;;20.30;72.20;;;;;;4986954;28;20053;-74
2023/05/11 08:16:12;;;;;;;1.15;0.40;;;20.30;72.20;;;;;;4986010;28;20057;-74
2023/05/11 08:18:39;;;;;;;1.08;0.30;;;20.30;72.20;;;;;;4975833;28;20043;-74
2023/05/11 08:21:07;;;;;;;1.30;0.30;;;20.30;72.20;;;;;;4981569;28;20056;-74
2023/05/11 08:23:34;;;;;;;0.77;0.20;;;20.30;72.20;;;;;;4974545;28;20154;-73
2023/05/11 08:26:01;;;;;;;1.30;0.22;;;20.30;72.30;;;;;;4982557;28;20050;-73
2023/05/11 08:28:28;;;;;;;1.20;0.30;;;20.30;72.30;;;;;;4983069;28;20050;-74
2023/05/11 08:30:56;;;;;;;0.95;0.32;;;20.40;72.40;;;;;;4985811;28;20415;-74
2023/05/11 08:33:23;;;;;;;1.05;0.30;;;20.30;72.40;;;;;;4990094;28;20054;-75
2023/05/11 08:35:51;;;;;;;1.58;0.35;;;20.40;72.40;;;;;;4990223;28;21005;-73
2023/05/11 08:38:19;;;;;;;2.67;0.40;;;20.30;72.40;;;;;;4984232;28;20407;-74
2023/05/11 08:40:47;;;;;;;1.25;0.25;;;20.40;72.40;;;;;;4985332;28;20050;-74
2023/05/11 08:43:15;;;;;;;1.63;0.30;;;20.40;72.40;;;;;;4992310;28;20054;-74
2023/05/11 08:45:46;;;;;;;1.13;0.32;;;20.40;72.40;;;;;;4987899;28;20082;-74
2023/05/11 08:48:16;;;;;;;1.23;0.25;;;20.40;72.40;;;;;;4992845;28;20046;-74
2023/05/11 08:50:45;;;;;;;1.42;0.50;;;20.40;72.40;;;;;;4993309;28;20261;-74
2023/05/11 08:53:12;;;;;;;1.38;0.22;;;20.40;72.40;;;;;;4994265;28;20140;-74
2023/05/11 08:55:41;;;;;;;2.15;0.20;;;20.40;72.30;;;;;;4994089;28;20514;-74
2023/05/11 08:58:08;;;;;;;1.08;0.30;;;20.40;72.40;;;;;;4991767;28;20085;-74
2023/05/11 09:00:36;;;;;;;0.98;0.20;;;20.40;72.40;;;;;;4991212;28;20054;-74
2023/05/11 09:03:04;;;;;;;1.10;0.32;;;20.40;72.30;;;;;;4994263;28;20094;-74
2023/05/11 09:05:32;;;;;;;0.80;0.20;;;20.40;72.30;;;;;;4991589;28;20515;-74
2023/05/11 09:08:02;;;;;;;2.92;0.32;;;20.40;72.30;;;;;;4994962;28;20046;-73
2023/05/11 09:10:29;;;;;;;1.20;0.30;;;20.40;72.30;;;;;;4993226;28;20050;-74
2023/05/11 09:12:57;;;;;;;0.98;0.30;;;20.50;72.40;;;;;;4990875;28;20050;-74
2023/05/11 09:15:24;;;;;;;0.90;0.10;;;20.50;72.40;;;;;;4989780;28;20069;-73
2023/05/11 09:17:51;;;;;;;2.65;0.22;;;20.50;72.40;;;;;;4989471;28;20061;-74
2023/05/11 09:20:27;;;;;;;1.10;0.30;;;20.50;72.40;;;;;;4994587;28;20065;-73
2023/05/11 09:22:55;;;;;;;1.15;0.35;;;20.50;72.50;;;;;;4993290;28;20112;-73
2023/05/11 09:25:23;;;;;;;1.02;0.30;;;20.50;72.50;;;;;;4990826;28;20065;-74
2023/05/11 09:27:50;;;;;;;1.65;0.30;;;20.50;72.50;;;;;;4991304;28;20069;-73
2023/05/11 09:30:20;;;;;;;1.35;0.40;;;20.50;72.50;;;;;;4993782;28;20525;-73
2023/05/11 09:32:48;;;;;;;2.30;0.30;;;20.50;72.40;;;;;;4991357;28;20042;-73
2023/05/11 09:35:27;;;;;;;1.35;0.32;;;20.60;72.40;;;;;;4992615;28;20136;-73
2023/05/11 09:37:58;;;;;;;0.98;0.20;;;20.60;72.50;;;;;;4989052;28;20056;-73
2023/05/11 09:40:26;;;;;;;0.90;0.38;;;20.60;72.40;;;;;;4989498;28;20101;-73
2023/05/11 09:42:53;;;;;;;1.55;0.30;;;20.60;72.40;;;;;;4990100;28;20528;-74
2023/05/11 09:45:37;;;;;;;0.95;0.30;;;20.60;72.90;;;;;;4990643;28;20517;-74
2023/05/11 09:48:06;;;;;;;1.00;0.30;;;20.60;72.40;;;;;;4987861;28;20061;-74
2023/05/11 09:50:34;;;;;;;0.80;0.28;;;20.70;72.40;;;;;;4989101;28;20042;-74
2023/05/11 09:53:01;;;;;;;1.10;0.35;;;20.70;72.30;;;;;;4982332;28;20046;-73
2023/05/11 09:55:28;;;;;;;1.70;0.30;;;20.70;72.30;;;;;;4989112;28;20050;-73
2023/05/11 09:57:57;;;;;;;1.10;0.20;;;20.70;72.30;;;;;;4986469;28;20061;-73
2023/05/11 10:00:25;;;;;;;1.42;0.45;;;20.70;72.30;;;;;;4986792;28;20069;-73
2023/05/11 10:03:05;;;;;;;1.05;0.30;;;20.70;72.30;;;;;;4988986;28;20051;-73
2023/05/11 10:05:35;;;;;;;1.42;0.45;;;20.70;72.30;;;;;;4987445;28;20061;-74
2023/05/11 10:08:04;;;;;;;0.80;0.10;;;20.70;72.30;;;;;;4991186;28;20060;-73
2023/05/11 10:10:33;;;;;;;0.90;0.30;;;20.70;72.30;;;;;;4990383;28;20124;-73
2023/05/11 10:13:03;;;;;;;1.15;0.40;;;20.80;72.30;;;;;;4979608;28;20062;-73
2023/05/11 10:15:35;;;;;;;1.80;0.30;;;20.80;72.30;;;;;;4985737;28;20053;-74
2023/05/11 10:18:06;;;;;;;1.33;0.30;;;20.80;72.30;;;;;;4990774;28;20144;-74
2023/05/11 10:20:33;;;;;;;1.27;0.30;;;20.80;72.40;;;;;;4981419;28;20541;-74
2023/05/11 10:23:00;;;;;;;1.92;0.20;;;20.80;72.30;;;;;;4985585;28;20057;-75
2023/05/11 10:25:28;;;;;;;1.40;0.30;;;20.90;72.40;;;;;;4989663;28;20065;-70
2023/05/11 10:27:55;;;;;;;1.20;0.52;;;20.90;72.40;;;;;;4988311;28;20510;-70
2023/05/11 10:30:23;;;;;;;0.82;0.20;;;20.90;73.00;;;;;;4972657;28;20058;-70
2023/05/11 10:32:52;;;;;;;1.73;0.28;;;20.90;72.40;;;;;;4989223;28;20063;-70
2023/05/11 10:35:21;;;;;;;0.85;0.15;;;20.90;72.40;;;;;;4987171;28;20077;-70
2023/05/11 10:37:49;;;;;;;1.65;0.65;;;20.90;72.40;;;;;;4986015;28;20058;-70
2023/05/11 10:40:16;;;;;;;0.95;0.30;;;21.00;72.30;;;;;;4986544;28;20057;-70
2023/05/11 10:43:08;;;;;;;1.20;0.40;;;21.00;72.40;;;;;;4982087;28;20063;-70
2023/05/11 10:45:43;;;;;;;1.10;0.22;;;21.00;72.40;;;;;;4982959;28;20055;-70
2023/05/11 10:48:58;;;;;;;1.10;0.30;;;21.10;72.30;;;;;;4987490;28;20062;-70
2023/05/11 10:51:54;;;;;;;1.35;0.30;;;21.10;72.50;;;;;;4928887;28;20414;-70
2023/05/11 10:54:31;;;;;;;1.08;0.22;;;21.10;72.40;;;;;;4985309;28;20054;-70
2023/05/11 10:57:16;;;;;;;1.25;0.30;;;21.10;72.20;;;;;;4983963;28;20063;-70
2023/05/11 11:00:42;;;;;;;1.10;0.40;;;21.10;72.40;;;;;;4986171;28;20066;-70
2023/05/11 11:03:11;;;;;;;1.77;0.65;;;21.10;72.50;;;;;;4963244;28;20050;-71
2023/05/11 11:05:38;;;;;;;0.90;0.30;;;21.20;72.40;;;;;;4986892;28;20197;-72
2023/05/11 11:08:08;;;;;;;1.23;0.30;;;21.20;72.40;;;;;;4987142;28;20407;-72
2023/05/11 11:10:36;;;;;;;1.35;0.30;;;21.20;72.40;;;;;;4987912;28;20089;-72
2023/05/11 11:13:05;;;;;;;0.70;0.20;;;21.20;72.40;;;;;;4987331;28;20050;-73
2023/05/11 11:16:10;;;;;;;1.20;0.43;;;21.20;72.50;;;;;;4983735;28;20061;-72
2023/05/11 11:18:37;;;;;;;1.10;0.30;;;21.20;72.50;;;;;;4984928;28;20513;-71
2023/05/11 11:21:04;;;;;;;1.50;0.20;;;21.20;72.50;;;;;;4982332;28;20561;-73
2023/05/11 11:24:01;;;;;;;0.98;0.30;;;21.20;72.50;;;;;;4987924;28;20053;-72
2023/05/11 11:26:48;;;;;;;0.90;0.20;;;21.30;72.60;;;;;;4987974;28;20503;-74
2023/05/11 11:29:15;;;;;;;1.20;0.30;;;21.30;72.70;;;;;;4975067;28;20055;-72
2023/05/11 11:31:42;;;;;;;0.90;0.20;;;21.30;72.60;;;;;;4981047;28;20125;-72
2023/05/11 11:34:42;;;;;;;1.13;0.40;;;21.30;72.60;;;;;;4975970;28;20050;-72
2023/05/11 11:37:09;;;;;;;;;;;21.30;72.70;;;;;;4923960;29;20055;-72
2023/05/11 11:39:49;;;;;;;1.63;0.20;;;21.30;72.70;;;;;;4906433;29;20475;-72
2023/05/11 11:42:18;;;;;;;0.70;0.10;;;21.30;72.50;;;;;;4945716;28;20413;-72
2023/05/11 11:44:45;;;;;;;1.02;0.40;;;21.30;72.50;;;;;;4981006;28;20043;-72
2023/05/11 11:47:14;;;;;;;1.85;0.20;;;21.40;72.60;;;;;;4976067;28;20058;-72
2023/05/11 11:49:42;;;;;;;1.15;0.30;;;21.40;72.70;;;;;;4974710;28;20046;-73
2023/05/11 11:52:12;;;;;;;1.40;0.32;;;21.40;72.70;;;;;;4980045;28;20065;-72
2023/05/11 11:54:39;;;;;;;;;;;21.40;72.70;;;;;;4985811;28;20046;-72
2023/05/11 11:57:42;;;;;;;1.05;0.32;;;21.40;72.80;;;;;;4974389;28;19925;-72
2023/05/11 12:00:11;;;;;;;1.88;0.65;;;21.50;72.70;;;;;;4977993;28;20082;-73
2023/05/11 12:02:41;;;;;;;0.80;0.30;;;21.50;72.60;;;;;;4979628;28;20376;-72
2023/05/11 12:05:12;;;;;;;1.13;0.30;;;21.50;72.60;;;;;;4986692;28;20062;-72
2023/05/11 12:07:42;;;;;;;0.77;0.32;;;21.50;73.10;;;;;;4983329;28;20050;-73
2023/05/11 12:10:12;;;;;;;1.00;0.30;;;21.50;72.80;;;;;;4981830;28;20554;-72
2023/05/11 12:12:44;;;;;;;1.20;0.30;;;21.50;72.70;;;;;;4986175;28;20053;-72
2023/05/11 12:15:24;;;;;;;1.20;0.30;;;21.50;72.70;;;;;;4983181;28;20116;-72
2023/05/11 12:17:51;;;;;;;1.00;0.32;;;21.60;72.80;;;;;;4984082;28;21961;-72
2023/05/11 12:20:20;;;;;;;0.90;0.13;;;21.60;72.70;;;;;;4982763;28;20046;-72
2023/05/11 12:22:48;;;;;;;1.00;0.20;;;21.60;72.70;;;;;;4984383;28;20428;-72
2023/05/11 12:25:16;;;;;;;0.77;0.30;;;21.60;72.70;;;;;;4982614;28;20046;-72
2023/05/11 12:27:49;;;;;;;0.90;0.25;;;21.70;72.70;;;;;;4978471;28;20086;-72
2023/05/11 12:30:21;;;;;;;0.80;0.30;;;21.70;72.80;;;;;;4986657;28;20054;-72
2023/05/11 12:32:48;;;;;;;0.88;0.20;;;21.70;72.80;;;;;;4988171;28;20105;-72
2023/05/11 12:35:16;;;;;;;1.48;0.25;;;21.70;72.70;;;;;;4986939;28;20051;-72
2023/05/11 12:37:43;;;;;;;0.85;0.22;;;21.70;72.70;;;;;;4988134;28;20434;-72
2023/05/11 12:40:12;;;;;;;1.00;0.30;;;21.70;72.70;;;;;;4986561;28;20057;-72
2023/05/11 12:42:39;;;;;;;0.85;0.20;;;21.80;72.80;;;;;;4984876;28;20446;-72
2023/05/11 12:45:09;;;;;;;0.90;0.30;;;21.80;72.80;;;;;;4987772;28;20046;-72
2023/05/11 12:47:36;;;;;;;0.93;0.30;;;21.80;72.80;;;;;;4981161;28;20061;-72
2023/05/11 12:50:03;;;;;;;1.10;0.28;;;21.80;72.80;;;;;;4988029;28;20097;-72
2023/05/11 12:52:30;;;;;;;0.70;0.20;;;21.80;72.80;;;;;;4985888;28;20055;-72
2023/05/11 12:54:58;;;;;;;1.08;0.43;;;21.80;72.80;;;;;;4986201;28;20402;-73
2023/05/11 12:57:26;;;;;;;1.10;0.20;;;21.80;72.80;;;;;;4981171;28;20501;-72
2023/05/11 13:00:12;;;;;;;0.95;0.30;;;21.90;72.80;;;;;;4985677;28;20055;-73